sensor_id;sensor_type;location;lat;lon;timestamp;temperature;humidity
44223;DHT22;29895;48.804;9.386;2022-08-11T00:02:05;16.40;99.80
44223;DHT22;29895;48.804;9.386;2022-08-11T00:04:33;16.40;99.90
44223;DHT22;29895;48.804;9.386;2022-08-11T00:07:01;16.30;99.90
44223;DHT22;29895;48.804;9.386;2022-08-11T00:09:30;16.30;99.90
44223;DHT22;29895;48.804;9.386;2022-08-11T00:11:56;16.30;99.90
44223;DHT22;29895;48.804;9.386;2022-08-11T00:14:29;16.30;99.90
44223;DHT22;29895;48.804;9.386;2022-08-11T00:16:58;16.20;99.90
44223;DHT22;29895;48.804;9.386;2022-08-11T00:19:27;16.20;99.90
44223;DHT22;29895;48.804;9.386;2022-08-11T00:21:55;16.10;99.90
44223;DHT22;29895;48.804;9.386;2022-08-11T00:24:21;16.10;99.90
44223;DHT22;29895;48.804;9.386;2022-08-11T00:26:51;16.10;99.90
44223;DHT22;29895;48.804;9.386;2022-08-11T00:29:17;16.00;99.90
44223;DHT22;29895;48.804;9.386;2022-08-11T00:31:47;15.90;99.90
44223;DHT22;29895;48.804;9.386;2022-08-11T00:34:15;15.90;99.90
44223;DHT22;29895;48.804;9.386;2022-08-11T00:36:42;15.80;99.90
44223;DHT22;29895;48.804;9.386;2022-08-11T00:39:09;15.70;99.90
44223;DHT22;29895;48.804;9.386;2022-08-11T00:41:41;15.80;99.90
44223;DHT22;29895;48.804;9.386;2022-08-11T00:47:00;15.80;99.90
44223;DHT22;29895;48.804;9.386;2022-08-11T00:57:24;15.80;99.90
44223;DHT22;29895;48.804;9.386;2022-08-11T01:00:19;15.70;99.90
44223;DHT22;29895;48.804;9.386;2022-08-11T01:10:22;15.50;99.90
44223;DHT22;29895;48.804;9.386;2022-08-11T02:20:41;14.60;99.90
44223;DHT22;29895;48.804;9.386;2022-08-11T02:23:28;14.50;99.90
44223;DHT22;29895;48.804;9.386;2022-08-11T02:26:04;14.50;99.90
44223;DHT22;29895;48.804;9.386;2022-08-11T02:31:33;14.40;99.90
44223;DHT22;29895;48.804;9.386;2022-08-11T02:34:23;14.30;99.90
44223;DHT22;29895;48.804;9.386;2022-08-11T02:39:27;14.20;99.90
44223;DHT22;29895;48.804;9.386;2022-08-11T02:47:31;14.20;99.90
44223;DHT22;29895;48.804;9.386;2022-08-11T02:52:29;14.20;99.90
44223;DHT22;29895;48.804;9.386;2022-08-11T02:57:27;14.20;99.90
44223;DHT22;29895;48.804;9.386;2022-08-11T03:00:04;14.20;99.90
44223;DHT22;29895;48.804;9.386;2022-08-11T03:10:49;14.10;99.90
44223;DHT22;29895;48.804;9.386;2022-08-11T03:13:42;14.10;99.90
44223;DHT22;29895;48.804;9.386;2022-08-11T03:16:37;14.00;99.90
44223;DHT22;29895;48.804;9.386;2022-08-11T03:24:51;13.90;99.90
44223;DHT22;29895;48.804;9.386;2022-08-11T03:32:40;13.80;99.90
44223;DHT22;29895;48.804;9.386;2022-08-11T03:35:09;13.70;99.90
44223;DHT22;29895;48.804;9.386;2022-08-11T03:37:55;13.70;99.90
44223;DHT22;29895;48.804;9.386;2022-08-11T03:48:24;13.60;99.90
44223;DHT22;29895;48.804;9.386;2022-08-11T03:53:43;13.60;99.90
44223;DHT22;29895;48.804;9.386;2022-08-11T03:59:01;13.60;99.90
44223;DHT22;29895;48.804;9.386;2022-08-11T04:01:40;13.60;99.90
44223;DHT22;29895;48.804;9.386;2022-08-11T04:07:17;13.60;99.90
44223;DHT22;29895;48.804;9.386;2022-08-11T04:20:28;13.50;99.90
44223;DHT22;29895;48.804;9.386;2022-08-11T04:23:22;13.50;99.90
44223;DHT22;29895;48.804;9.386;2022-08-11T04:33:47;13.60;99.90
44223;DHT22;29895;48.804;9.386;2022-08-11T04:39:15;13.50;99.90
44223;DHT22;29895;48.804;9.386;2022-08-11T04:41:58;13.60;99.90
44223;DHT22;29895;48.804;9.386;2022-08-11T04:47:18;13.70;99.90
44223;DHT22;29895;48.804;9.386;2022-08-11T04:53:04;13.90;99.90
44223;DHT22;29895;48.804;9.386;2022-08-11T05:01:31;15.00;99.90
44223;DHT22;29895;48.804;9.386;2022-08-11T05:09:27;15.90;99.90
44223;DHT22;29895;48.804;9.386;2022-08-11T05:12:41;16.10;99.90
44223;DHT22;29895;48.804;9.386;2022-08-11T05:14:51;16.30;99.90
44223;DHT22;29895;48.804;9.386;2022-08-11T05:17:37;16.70;99.90
44223;DHT22;29895;48.804;9.386;2022-08-11T05:20:22;17.10;99.90
44223;DHT22;29895;48.804;9.386;2022-08-11T05:23:07;17.50;99.90
44223;DHT22;29895;48.804;9.386;2022-08-11T05:25:54;17.80;99.90
44223;DHT22;29895;48.804;9.386;2022-08-11T05:28:41;17.70;99.90
44223;DHT22;29895;48.804;9.386;2022-08-11T05:31:29;17.80;99.90
44223;DHT22;29895;48.804;9.386;2022-08-11T05:39:28;18.00;99.90
44223;DHT22;29895;48.804;9.386;2022-08-11T05:42:14;18.00;99.90
44223;DHT22;29895;48.804;9.386;2022-08-11T05:45:16;18.10;99.90
44223;DHT22;29895;48.804;9.386;2022-08-11T05:48:01;18.30;99.90
44223;DHT22;29895;48.804;9.386;2022-08-11T05:50:50;18.40;99.90
44223;DHT22;29895;48.804;9.386;2022-08-11T05:53:33;18.40;99.90
44223;DHT22;29895;48.804;9.386;2022-08-11T05:56:18;18.60;99.90
44223;DHT22;29895;48.804;9.386;2022-08-11T05:58:45;18.80;99.80
44223;DHT22;29895;48.804;9.386;2022-08-11T06:01:12;19.10;99.20
44223;DHT22;29895;48.804;9.386;2022-08-11T06:03:38;19.40;99.10
44223;DHT22;29895;48.804;9.386;2022-08-11T06:06:26;19.50;98.90
44223;DHT22;29895;48.804;9.386;2022-08-11T06:08:54;19.80;98.50
44223;DHT22;29895;48.804;9.386;2022-08-11T06:11:19;20.20;97.90
44223;DHT22;29895;48.804;9.386;2022-08-11T06:13:45;20.50;97.30
44223;DHT22;29895;48.804;9.386;2022-08-11T06:16:12;20.60;97.20
44223;DHT22;29895;48.804;9.386;2022-08-11T06:18:44;20.70;96.90
44223;DHT22;29895;48.804;9.386;2022-08-11T06:21:10;20.80;96.70
44223;DHT22;29895;48.804;9.386;2022-08-11T06:23:36;21.20;96.20
44223;DHT22;29895;48.804;9.386;2022-08-11T06:26:06;21.60;95.50
44223;DHT22;29895;48.804;9.386;2022-08-11T06:28:34;22.00;95.00
44223;DHT22;29895;48.804;9.386;2022-08-11T06:31:01;22.60;94.10
44223;DHT22;29895;48.804;9.386;2022-08-11T06:36:01;22.40;92.40
44223;DHT22;29895;48.804;9.386;2022-08-11T06:41:19;22.40;91.90
44223;DHT22;29895;48.804;9.386;2022-08-11T06:46:39;22.40;91.90
44223;DHT22;29895;48.804;9.386;2022-08-11T06:49:08;22.50;91.60
44223;DHT22;29895;48.804;9.386;2022-08-11T06:51:53;22.60;91.50
44223;DHT22;29895;48.804;9.386;2022-08-11T06:54:20;22.40;91.60
44223;DHT22;29895;48.804;9.386;2022-08-11T06:56:47;22.70;91.30
44223;DHT22;29895;48.804;9.386;2022-08-11T06:59:32;23.00;91.20
44223;DHT22;29895;48.804;9.386;2022-08-11T07:02:19;23.20;91.00
44223;DHT22;29895;48.804;9.386;2022-08-11T15:57:35;28.60;60.60
44223;DHT22;29895;48.804;9.386;2022-08-11T16:00:20;28.60;60.50
44223;DHT22;29895;48.804;9.386;2022-08-11T16:03:04;28.60;60.30
44223;DHT22;29895;48.804;9.386;2022-08-11T16:05:50;28.60;59.70
44223;DHT22;29895;48.804;9.386;2022-08-11T16:08:16;28.50;60.10
44223;DHT22;29895;48.804;9.386;2022-08-11T16:10:45;28.40;59.90
44223;DHT22;29895;48.804;9.386;2022-08-11T16:13:10;28.50;60.40
44223;DHT22;29895;48.804;9.386;2022-08-11T16:15:43;28.50;60.50
44223;DHT22;29895;48.804;9.386;2022-08-11T16:18:40;28.60;60.00
44223;DHT22;29895;48.804;9.386;2022-08-11T16:21:09;28.60;59.50
44223;DHT22;29895;48.804;9.386;2022-08-11T16:23:35;28.40;59.80
44223;DHT22;29895;48.804;9.386;2022-08-11T16:26:01;28.40;59.90
44223;DHT22;29895;48.804;9.386;2022-08-11T16:28:27;28.60;59.80
44223;DHT22;29895;48.804;9.386;2022-08-11T16:30:56;28.60;59.70
44223;DHT22;29895;48.804;9.386;2022-08-11T16:33:21;28.50;59.90
44223;DHT22;29895;48.804;9.386;2022-08-11T16:35:48;28.40;60.10
44223;DHT22;29895;48.804;9.386;2022-08-11T16:38:33;28.40;59.90
44223;DHT22;29895;48.804;9.386;2022-08-11T16:41:02;28.40;60.10
44223;DHT22;29895;48.804;9.386;2022-08-11T16:43:29;28.30;59.90
44223;DHT22;29895;48.804;9.386;2022-08-11T16:46:14;28.30;60.40
44223;DHT22;29895;48.804;9.386;2022-08-11T16:49:01;28.30;60.40
44223;DHT22;29895;48.804;9.386;2022-08-11T16:51:27;28.20;60.20
44223;DHT22;29895;48.804;9.386;2022-08-11T16:53:52;28.20;60.60
44223;DHT22;29895;48.804;9.386;2022-08-11T16:56:19;28.20;60.30
44223;DHT22;29895;48.804;9.386;2022-08-11T16:58:46;28.20;60.00
44223;DHT22;29895;48.804;9.386;2022-08-11T17:01:33;28.20;60.20
44223;DHT22;29895;48.804;9.386;2022-08-11T17:04:02;28.20;60.30
44223;DHT22;29895;48.804;9.386;2022-08-11T17:06:49;28.20;60.60
44223;DHT22;29895;48.804;9.386;2022-08-11T17:09:34;28.10;60.30
44223;DHT22;29895;48.804;9.386;2022-08-11T17:12:19;28.20;60.40
44223;DHT22;29895;48.804;9.386;2022-08-11T17:15:04;28.10;60.30
44223;DHT22;29895;48.804;9.386;2022-08-11T17:17:50;28.10;60.00
44223;DHT22;29895;48.804;9.386;2022-08-11T17:20:17;28.00;60.20
44223;DHT22;29895;48.804;9.386;2022-08-11T17:22:43;28.00;60.40
44223;DHT22;29895;48.804;9.386;2022-08-11T17:25:28;28.00;60.00
44223;DHT22;29895;48.804;9.386;2022-08-11T17:27:55;28.00;60.10
44223;DHT22;29895;48.804;9.386;2022-08-11T17:30:21;27.90;60.20
44223;DHT22;29895;48.804;9.386;2022-08-11T17:33:07;27.90;60.10
44223;DHT22;29895;48.804;9.386;2022-08-11T17:35:54;27.80;60.20
44223;DHT22;29895;48.804;9.386;2022-08-11T17:38:20;27.90;60.20
44223;DHT22;29895;48.804;9.386;2022-08-11T17:40:48;27.80;60.30
44223;DHT22;29895;48.804;9.386;2022-08-11T17:43:34;27.80;60.30
44223;DHT22;29895;48.804;9.386;2022-08-11T17:46:19;27.80;60.10
44223;DHT22;29895;48.804;9.386;2022-08-11T17:49:04;27.70;60.50
44223;DHT22;29895;48.804;9.386;2022-08-11T17:51:31;27.60;60.40
44223;DHT22;29895;48.804;9.386;2022-08-11T17:54:16;27.60;60.70
44223;DHT22;29895;48.804;9.386;2022-08-11T17:57:02;27.50;61.00
44223;DHT22;29895;48.804;9.386;2022-08-11T17:59:47;27.50;61.00
44223;DHT22;29895;48.804;9.386;2022-08-11T18:02:17;27.40;60.90
44223;DHT22;29895;48.804;9.386;2022-08-11T18:05:02;27.40;61.00
44223;DHT22;29895;48.804;9.386;2022-08-11T18:07:29;27.30;61.30
44223;DHT22;29895;48.804;9.386;2022-08-11T18:10:14;27.20;61.40
44223;DHT22;29895;48.804;9.386;2022-08-11T18:12:58;27.10;62.00
44223;DHT22;29895;48.804;9.386;2022-08-11T18:15:43;27.00;62.00
44223;DHT22;29895;48.804;9.386;2022-08-11T18:18:27;26.90;62.30
44223;DHT22;29895;48.804;9.386;2022-08-11T18:21:13;26.90;62.50
44223;DHT22;29895;48.804;9.386;2022-08-11T18:23:57;26.70;63.00
44223;DHT22;29895;48.804;9.386;2022-08-11T18:26:44;26.70;63.20
44223;DHT22;29895;48.804;9.386;2022-08-11T18:29:29;26.60;63.00
44223;DHT22;29895;48.804;9.386;2022-08-11T18:32:16;26.50;63.10
44223;DHT22;29895;48.804;9.386;2022-08-11T18:35:00;26.30;63.70
44223;DHT22;29895;48.804;9.386;2022-08-11T18:37:45;26.10;63.70
44223;DHT22;29895;48.804;9.386;2022-08-11T18:40:30;26.00;64.00
44223;DHT22;29895;48.804;9.386;2022-08-11T18:43:14;26.00;64.30
44223;DHT22;29895;48.804;9.386;2022-08-11T18:46:00;25.90;65.00
44223;DHT22;29895;48.804;9.386;2022-08-11T18:48:49;25.60;66.50
44223;DHT22;29895;48.804;9.386;2022-08-11T18:51:35;25.30;68.10
44223;DHT22;29895;48.804;9.386;2022-08-11T18:54:19;25.00;69.60
44223;DHT22;29895;48.804;9.386;2022-08-11T18:57:05;24.70;70.50
44223;DHT22;29895;48.804;9.386;2022-08-11T18:59:49;24.40;72.10
44223;DHT22;29895;48.804;9.386;2022-08-11T19:02:36;24.20;73.50
44223;DHT22;29895;48.804;9.386;2022-08-11T19:05:21;23.90;74.40
44223;DHT22;29895;48.804;9.386;2022-08-11T19:08:05;23.60;75.50
44223;DHT22;29895;48.804;9.386;2022-08-11T19:10:51;23.30;76.00
44223;DHT22;29895;48.804;9.386;2022-08-11T19:13:36;23.10;76.80
44223;DHT22;29895;48.804;9.386;2022-08-11T19:16:21;23.00;77.40
44223;DHT22;29895;48.804;9.386;2022-08-11T19:19:07;22.80;78.00
44223;DHT22;29895;48.804;9.386;2022-08-11T19:21:52;22.70;78.20
44223;DHT22;29895;48.804;9.386;2022-08-11T19:24:36;22.50;78.40
44223;DHT22;29895;48.804;9.386;2022-08-11T19:27:22;22.40;78.90
44223;DHT22;29895;48.804;9.386;2022-08-11T19:30:07;22.30;79.30
44223;DHT22;29895;48.804;9.386;2022-08-11T19:32:51;22.10;79.90
44223;DHT22;29895;48.804;9.386;2022-08-11T19:35:36;22.00;80.30
44223;DHT22;29895;48.804;9.386;2022-08-11T19:38:20;21.90;80.50
44223;DHT22;29895;48.804;9.386;2022-08-11T19:41:05;21.70;80.90
44223;DHT22;29895;48.804;9.386;2022-08-11T19:43:49;21.60;81.20
44223;DHT22;29895;48.804;9.386;2022-08-11T19:46:34;21.50;81.70
44223;DHT22;29895;48.804;9.386;2022-08-11T19:49:19;21.40;82.20
44223;DHT22;29895;48.804;9.386;2022-08-11T19:52:06;21.30;82.80
44223;DHT22;29895;48.804;9.386;2022-08-11T19:54:51;21.10;83.20
44223;DHT22;29895;48.804;9.386;2022-08-11T19:57:35;21.10;83.60
44223;DHT22;29895;48.804;9.386;2022-08-11T20:00:20;20.90;84.10
44223;DHT22;29895;48.804;9.386;2022-08-11T20:03:06;20.80;84.50
44223;DHT22;29895;48.804;9.386;2022-08-11T20:05:51;20.60;84.90
44223;DHT22;29895;48.804;9.386;2022-08-11T20:08:35;20.50;85.20
44223;DHT22;29895;48.804;9.386;2022-08-11T20:11:22;20.40;85.50
44223;DHT22;29895;48.804;9.386;2022-08-11T20:14:07;20.30;85.80
44223;DHT22;29895;48.804;9.386;2022-08-11T20:16:51;20.20;86.10
44223;DHT22;29895;48.804;9.386;2022-08-11T20:19:36;20.10;86.60
44223;DHT22;29895;48.804;9.386;2022-08-11T20:22:21;20.00;86.90
44223;DHT22;29895;48.804;9.386;2022-08-11T20:25:07;19.90;87.60
44223;DHT22;29895;48.804;9.386;2022-08-11T20:27:52;19.80;88.00
44223;DHT22;29895;48.804;9.386;2022-08-11T20:30:36;19.70;88.50
44223;DHT22;29895;48.804;9.386;2022-08-11T20:33:20;19.60;88.80
44223;DHT22;29895;48.804;9.386;2022-08-11T20:36:05;19.50;88.80
44223;DHT22;29895;48.804;9.386;2022-08-11T20:38:50;19.40;89.00
44223;DHT22;29895;48.804;9.386;2022-08-11T20:41:35;19.30;89.30
44223;DHT22;29895;48.804;9.386;2022-08-11T20:44:20;19.30;89.50
44223;DHT22;29895;48.804;9.386;2022-08-11T20:47:05;19.20;89.70
44223;DHT22;29895;48.804;9.386;2022-08-11T20:49:50;19.20;90.00
44223;DHT22;29895;48.804;9.386;2022-08-11T20:52:35;19.00;90.20
44223;DHT22;29895;48.804;9.386;2022-08-11T20:55:19;19.00;90.40
44223;DHT22;29895;48.804;9.386;2022-08-11T20:58:04;19.00;90.40
44223;DHT22;29895;48.804;9.386;2022-08-11T21:00:48;19.00;90.40
44223;DHT22;29895;48.804;9.386;2022-08-11T21:03:34;19.00;90.50
44223;DHT22;29895;48.804;9.386;2022-08-11T21:06:18;19.00;90.60
44223;DHT22;29895;48.804;9.386;2022-08-11T21:09:03;19.00;90.80
44223;DHT22;29895;48.804;9.386;2022-08-11T21:11:48;18.90;91.00
44223;DHT22;29895;48.804;9.386;2022-08-11T21:14:36;18.70;91.10
44223;DHT22;29895;48.804;9.386;2022-08-11T21:17:20;18.70;91.10
44223;DHT22;29895;48.804;9.386;2022-08-11T21:20:06;18.60;91.30
44223;DHT22;29895;48.804;9.386;2022-08-11T21:23:02;18.50;91.50
44223;DHT22;29895;48.804;9.386;2022-08-11T21:25:48;18.50;91.40
44223;DHT22;29895;48.804;9.386;2022-08-11T21:28:33;18.40;91.50
44223;DHT22;29895;48.804;9.386;2022-08-11T21:31:18;18.40;91.70
44223;DHT22;29895;48.804;9.386;2022-08-11T21:34:03;18.30;91.70
44223;DHT22;29895;48.804;9.386;2022-08-11T21:36:48;18.30;91.60
44223;DHT22;29895;48.804;9.386;2022-08-11T21:39:33;18.30;91.50
44223;DHT22;29895;48.804;9.386;2022-08-11T21:42:17;18.40;91.10
44223;DHT22;29895;48.804;9.386;2022-08-11T21:45:02;18.50;90.80
44223;DHT22;29895;48.804;9.386;2022-08-11T21:47:47;18.60;90.30
44223;DHT22;29895;48.804;9.386;2022-08-11T21:50:32;18.70;89.80
44223;DHT22;29895;48.804;9.386;2022-08-11T21:53:16;18.80;89.10
44223;DHT22;29895;48.804;9.386;2022-08-11T21:56:01;19.00;88.30
44223;DHT22;29895;48.804;9.386;2022-08-11T21:58:46;19.00;88.70
44223;DHT22;29895;48.804;9.386;2022-08-11T22:01:31;19.10;88.70
44223;DHT22;29895;48.804;9.386;2022-08-11T22:04:15;19.00;88.30
44223;DHT22;29895;48.804;9.386;2022-08-11T22:06:59;19.00;89.40
44223;DHT22;29895;48.804;9.386;2022-08-11T22:09:44;18.90;90.00
44223;DHT22;29895;48.804;9.386;2022-08-11T22:12:28;18.70;90.20
44223;DHT22;29895;48.804;9.386;2022-08-11T22:15:13;18.70;90.30
44223;DHT22;29895;48.804;9.386;2022-08-11T22:17:59;18.60;90.40
44223;DHT22;29895;48.804;9.386;2022-08-11T22:20:43;18.50;90.50
44223;DHT22;29895;48.804;9.386;2022-08-11T22:23:27;18.40;90.80
44223;DHT22;29895;48.804;9.386;2022-08-11T22:26:17;18.30;91.20
44223;DHT22;29895;48.804;9.386;2022-08-11T22:29:01;18.10;91.60
44223;DHT22;29895;48.804;9.386;2022-08-11T22:31:50;17.90;92.00
44223;DHT22;29895;48.804;9.386;2022-08-11T22:34:35;17.80;92.30
44223;DHT22;29895;48.804;9.386;2022-08-11T22:37:20;17.80;92.30
44223;DHT22;29895;48.804;9.386;2022-08-11T22:40:05;17.80;92.00
44223;DHT22;29895;48.804;9.386;2022-08-11T22:42:49;17.90;92.00
44223;DHT22;29895;48.804;9.386;2022-08-11T22:45:34;17.80;92.10
44223;DHT22;29895;48.804;9.386;2022-08-11T22:48:18;17.80;92.30
44223;DHT22;29895;48.804;9.386;2022-08-11T22:51:02;17.70;92.60
44223;DHT22;29895;48.804;9.386;2022-08-11T22:53:46;17.60;92.90
44223;DHT22;29895;48.804;9.386;2022-08-11T22:56:31;17.60;93.10
44223;DHT22;29895;48.804;9.386;2022-08-11T22:59:16;17.50;93.20
44223;DHT22;29895;48.804;9.386;2022-08-11T23:02:04;17.40;93.30
44223;DHT22;29895;48.804;9.386;2022-08-11T23:04:48;17.40;93.50
44223;DHT22;29895;48.804;9.386;2022-08-11T23:07:33;17.40;93.60
44223;DHT22;29895;48.804;9.386;2022-08-11T23:10:19;17.30;93.90
44223;DHT22;29895;48.804;9.386;2022-08-11T23:13:03;17.30;94.10
44223;DHT22;29895;48.804;9.386;2022-08-11T23:15:48;17.20;94.40
44223;DHT22;29895;48.804;9.386;2022-08-11T23:18:32;17.20;94.60
44223;DHT22;29895;48.804;9.386;2022-08-11T23:21:16;17.10;94.60
44223;DHT22;29895;48.804;9.386;2022-08-11T23:24:01;17.10;94.90
44223;DHT22;29895;48.804;9.386;2022-08-11T23:26:45;17.10;95.00
44223;DHT22;29895;48.804;9.386;2022-08-11T23:29:31;17.00;95.00
44223;DHT22;29895;48.804;9.386;2022-08-11T23:32:17;17.00;95.10
44223;DHT22;29895;48.804;9.386;2022-08-11T23:35:01;17.00;95.20
44223;DHT22;29895;48.804;9.386;2022-08-11T23:37:46;16.90;95.40
44223;DHT22;29895;48.804;9.386;2022-08-11T23:40:30;16.90;95.50
44223;DHT22;29895;48.804;9.386;2022-08-11T23:43:18;16.90;95.70
44223;DHT22;29895;48.804;9.386;2022-08-11T23:46:03;16.80;95.80
44223;DHT22;29895;48.804;9.386;2022-08-11T23:48:47;16.90;95.80
44223;DHT22;29895;48.804;9.386;2022-08-11T23:51:33;16.80;95.90
44223;DHT22;29895;48.804;9.386;2022-08-11T23:54:17;16.80;96.00
44223;DHT22;29895;48.804;9.386;2022-08-11T23:57:02;16.80;96.20
44223;DHT22;29895;48.804;9.386;2022-08-11T23:59:46;16.80;96.30
